Time;durP1;ratioP1;P1;durP2;ratioP2;P2;SDS_P1;SDS_P2;PMS_P1;PMS_P2;Temp;Humidity;BMP_temperature;BMP_pressure;BME280_temperature;BME280_humidity;BME280_pressure;Samples;Min_cycle;Max_cycle;Signal;HPM_P1;HPM_P2
2022/03/03 00:00:49;;;;;;;264.58;134.98;;;-1.70;1.00;;;;;;5037859;28;20045;-77
2022/03/03 00:03:16;;;;;;;265.20;131.45;;;-1.70;1.00;;;;;;5037558;28;20041;-77
2022/03/03 00:05:44;;;;;;;252.20;128.70;;;-1.70;1.00;;;;;;5036986;28;20038;-77
2022/03/03 00:08:11;;;;;;;253.15;130.88;;;-1.80;1.00;;;;;;5035335;28;20093;-77
2022/03/03 00:10:39;;;;;;;249.18;127.57;;;-1.80;1.00;;;;;;5036664;28;20484;-77
2022/03/03 00:13:06;;;;;;;240.80;130.25;;;-1.80;1.00;;;;;;5036996;28;20091;-76
2022/03/03 00:15:34;;;;;;;245.93;128.98;;;-1.80;1.00;;;;;;5037867;28;20045;-77
2022/03/03 00:18:03;;;;;;;249.50;128.05;;;-1.80;1.00;;;;;;5034250;28;20095;-77
2022/03/03 00:20:31;;;;;;;247.65;127.32;;;-1.90;1.00;;;;;;5056296;28;20132;-76
2022/03/03 00:22:59;;;;;;;247.70;126.25;;;-1.90;1.00;;;;;;5038264;28;20045;-77
2022/03/03 00:25:26;;;;;;;218.25;116.25;;;-1.90;1.00;;;;;;5042298;28;20083;-77
2022/03/03 00:27:54;;;;;;;240.35;127.00;;;-2.00;1.00;;;;;;5044078;28;20066;-76
2022/03/03 00:30:22;;;;;;;243.13;127.90;;;-2.00;1.00;;;;;;5044011;28;20068;-76
2022/03/03 00:32:49;;;;;;;236.55;123.32;;;-2.00;1.00;;;;;;5068318;28;20044;-77
2022/03/03 00:35:18;;;;;;;229.50;122.60;;;-2.00;1.00;;;;;;5063588;28;20052;-77
2022/03/03 00:37:46;;;;;;;227.02;120.88;;;-2.10;1.00;;;;;;5082473;28;20119;-76
2022/03/03 00:40:14;;;;;;;236.40;122.35;;;-2.10;1.00;;;;;;5079018;28;20045;-76
2022/03/03 00:42:41;;;;;;;220.65;121.32;;;-2.10;1.00;;;;;;5037266;28;20037;-77
2022/03/03 00:45:10;;;;;;;218.60;118.97;;;-2.20;1.00;;;;;;5042042;28;20059;-76
2022/03/03 00:47:37;;;;;;;206.02;118.40;;;-2.20;1.00;;;;;;5045011;28;20049;-76
2022/03/03 00:50:06;;;;;;;219.77;124.88;;;-2.20;1.00;;;;;;5070108;28;20055;-76
2022/03/03 00:52:36;;;;;;;193.75;117.25;;;-2.20;1.00;;;;;;5058380;28;20045;-76
2022/03/03 00:55:03;;;;;;;206.00;117.95;;;-2.20;1.00;;;;;;5057391;28;20041;-76
2022/03/03 00:57:31;;;;;;;191.63;116.47;;;-2.30;1.00;;;;;;5038792;28;20496;-76
2022/03/03 00:59:59;;;;;;;195.40;115.32;;;-2.30;1.00;;;;;;5038084;28;20049;-77
2022/03/03 01:02:27;;;;;;;197.65;113.53;;;-2.30;1.00;;;;;;5037092;28;20449;-77
2022/03/03 01:04:54;;;;;;;202.05;116.20;;;-2.30;1.00;;;;;;5055531;28;20055;-77
2022/03/03 01:07:22;;;;;;;216.77;124.10;;;-2.30;1.00;;;;;;5038275;28;20059;-76
2022/03/03 01:09:52;;;;;;;211.25;122.60;;;-2.30;1.00;;;;;;5055796;28;20086;-76
2022/03/03 01:12:20;;;;;;;199.85;114.85;;;-2.30;1.00;;;;;;5037577;28;20041;-75
2022/03/03 01:14:48;;;;;;;190.82;107.68;;;-2.40;1.00;;;;;;5055458;28;20047;-76
2022/03/03 01:17:16;;;;;;;204.68;118.43;;;-2.40;1.00;;;;;;5038586;28;20045;-76
2022/03/03 01:19:44;;;;;;;214.60;121.07;;;-2.40;1.00;;;;;;5038061;28;20107;-76
2022/03/03 01:22:12;;;;;;;206.65;121.90;;;-2.50;1.00;;;;;;5037262;28;20073;-76
2022/03/03 01:24:40;;;;;;;211.30;123.30;;;-2.50;1.00;;;;;;5035778;28;20140;-75
2022/03/03 01:27:09;;;;;;;228.90;131.23;;;-2.50;1.00;;;;;;5037640;28;20045;-76
2022/03/03 01:29:37;;;;;;;239.48;133.25;;;-2.60;1.00;;;;;;5038993;28;20053;-76
2022/03/03 01:32:05;;;;;;;252.10;139.45;;;-2.60;1.00;;;;;;5040064;28;20049;-76
2022/03/03 01:34:33;;;;;;;254.25;138.02;;;-2.60;1.00;;;;;;5058781;28;20071;-76
2022/03/03 01:37:01;;;;;;;206.35;115.63;;;-2.70;1.00;;;;;;5058930;28;20102;-76
2022/03/03 01:39:28;;;;;;;177.90;101.53;;;-2.70;1.00;;;;;;5044860;28;20136;-77
2022/03/03 01:41:57;;;;;;;144.55;85.72;;;-2.70;1.00;;;;;;5037578;28;20056;-77
2022/03/03 01:44:26;;;;;;;136.25;79.43;;;-2.70;1.00;;;;;;5036686;28;20049;-76
2022/03/03 01:46:56;;;;;;;139.30;83.25;;;-2.70;1.00;;;;;;5037037;28;20049;-77
2022/03/03 01:49:24;;;;;;;156.02;92.30;;;-2.70;1.00;;;;;;5054884;28;20049;-76
2022/03/03 01:51:52;;;;;;;154.77;88.82;;;-2.70;1.00;;;;;;5054468;28;20048;-76
2022/03/03 01:54:21;;;;;;;172.82;98.55;;;-2.80;1.00;;;;;;5054294;28;20077;-77
2022/03/03 01:56:49;;;;;;;164.07;94.88;;;-2.80;1.00;;;;;;5036300;28;20068;-77
2022/03/03 01:59:16;;;;;;;164.80;93.57;;;-2.80;1.00;;;;;;5054222;28;20510;-77
2022/03/03 02:01:46;;;;;;;150.73;87.45;;;-2.80;1.00;;;;;;5036158;28;20072;-77
2022/03/03 02:04:13;;;;;;;158.48;93.10;;;-2.80;1.00;;;;;;5053629;28;20041;-77
2022/03/03 02:06:41;;;;;;;156.85;91.28;;;-2.80;1.00;;;;;;5054350;28;20069;-77
2022/03/03 02:09:09;;;;;;;163.00;95.35;;;-2.90;1.00;;;;;;5054484;28;20496;-76
2022/03/03 02:11:37;;;;;;;157.48;89.63;;;-2.90;1.00;;;;;;5059129;28;20128;-76
2022/03/03 02:14:06;;;;;;;167.02;95.20;;;-2.90;1.00;;;;;;5057799;28;20047;-76
2022/03/03 02:16:34;;;;;;;150.07;87.18;;;-2.90;1.00;;;;;;5037958;28;20045;-76
2022/03/03 02:19:03;;;;;;;152.18;89.75;;;-2.90;1.00;;;;;;5035193;28;20053;-77
2022/03/03 02:21:32;;;;;;;151.55;89.03;;;-3.00;1.00;;;;;;5034659;28;20046;-76
2022/03/03 02:24:01;;;;;;;141.18;84.38;;;-3.00;1.00;;;;;;5033262;28;20404;-76
2022/03/03 02:26:28;;;;;;;146.57;87.97;;;-3.00;1.00;;;;;;5032917;28;20052;-76
2022/03/03 02:28:56;;;;;;;146.82;87.25;;;-3.00;1.00;;;;;;5034131;28;20046;-77
2022/03/03 02:31:24;;;;;;;162.75;94.00;;;-3.00;1.00;;;;;;5031747;28;20057;-77
2022/03/03 02:33:52;;;;;;;162.93;93.63;;;-3.10;1.00;;;;;;5032149;28;20068;-76
2022/03/03 02:36:22;;;;;;;164.55;98.10;;;-3.10;1.00;;;;;;5034570;28;20042;-76
2022/03/03 02:38:56;;;;;;;166.25;95.70;;;-3.10;1.00;;;;;;5046183;28;20042;-76
2022/03/03 02:41:25;;;;;;;157.07;94.65;;;-3.10;1.00;;;;;;5043943;28;20523;-76
2022/03/03 02:43:52;;;;;;;151.45;91.32;;;-3.20;1.00;;;;;;5031993;28;20042;-76
2022/03/03 02:46:20;;;;;;;149.00;90.65;;;-3.20;1.00;;;;;;5032163;28;20049;-76
2022/03/03 02:48:48;;;;;;;151.93;89.68;;;-3.20;1.00;;;;;;5032147;28;20045;-76
2022/03/03 02:51:17;;;;;;;151.95;90.50;;;-3.20;99.90;;;;;;5032393;28;20517;-77
2022/03/03 02:53:44;;;;;;;148.57;87.53;;;-3.20;1.00;;;;;;5031674;28;20049;-76
2022/03/03 02:56:14;;;;;;;161.23;93.30;;;-3.20;1.00;;;;;;5034000;28;20050;-76
2022/03/03 02:58:40;;;;;;;158.02;95.60;;;-3.20;1.00;;;;;;5034134;28;20049;-76
2022/03/03 03:01:09;;;;;;;169.90;101.00;;;-3.20;1.00;;;;;;5036777;28;20038;-76
2022/03/03 03:03:37;;;;;;;169.32;100.30;;;-3.30;1.00;;;;;;5035367;28;20041;-75
2022/03/03 03:06:04;;;;;;;173.75;99.60;;;-3.30;1.00;;;;;;5035521;28;20440;-76
2022/03/03 03:08:33;;;;;;;172.48;99.05;;;-3.40;1.00;;;;;;5033969;28;20050;-75
2022/03/03 03:11:00;;;;;;;182.18;103.97;;;-3.50;1.00;;;;;;5039174;28;20509;-76
2022/03/03 03:13:29;;;;;;;182.60;103.93;;;-3.50;1.00;;;;;;5038246;28;20117;-75
2022/03/03 03:15:57;;;;;;;179.07;103.25;;;-3.50;1.00;;;;;;5036109;28;20148;-76
2022/03/03 03:18:24;;;;;;;170.48;99.93;;;-3.40;1.00;;;;;;5041768;28;20056;-75
2022/03/03 03:20:53;;;;;;;167.65;97.78;;;-3.50;1.00;;;;;;5040999;28;20557;-76
2022/03/03 03:23:22;;;;;;;148.90;88.90;;;-3.50;1.00;;;;;;5038651;28;20040;-77
2022/03/03 03:25:50;;;;;;;156.73;88.30;;;-3.50;1.00;;;;;;5041505;28;20125;-77
2022/03/03 03:28:19;;;;;;;151.85;88.10;;;-3.50;1.00;;;;;;5044595;28;20110;-76
2022/03/03 03:30:49;;;;;;;152.05;89.30;;;-3.50;1.00;;;;;;5038899;28;20042;-76
2022/03/03 03:33:17;;;;;;;141.13;83.93;;;-3.50;1.00;;;;;;5048921;28;20037;-76
2022/03/03 03:35:45;;;;;;;139.50;78.80;;;-3.50;1.00;;;;;;5058770;28;20139;-76
2022/03/03 03:38:13;;;;;;;151.35;86.50;;;-3.50;1.00;;;;;;5040208;28;20045;-75
2022/03/03 03:40:41;;;;;;;144.85;82.70;;;-3.50;1.00;;;;;;5030224;28;20053;-76
2022/03/03 03:43:08;;;;;;;139.18;81.57;;;-3.50;1.00;;;;;;5049095;28;20037;-76
2022/03/03 03:45:36;;;;;;;136.25;80.05;;;-3.50;1.00;;;;;;5056200;28;20087;-76
2022/03/03 03:48:06;;;;;;;140.48;81.32;;;-3.50;1.00;;;;;;5056698;28;20488;-75
2022/03/03 03:50:34;;;;;;;147.10;86.03;;;-3.50;1.00;;;;;;5022230;28;20057;-75
2022/03/03 03:53:01;;;;;;;144.40;86.22;;;-3.50;1.00;;;;;;5039312;28;20154;-76
2022/03/03 03:55:29;;;;;;;149.20;87.30;;;-3.60;1.00;;;;;;5042970;28;20041;-77
2022/03/03 03:57:57;;;;;;;158.57;91.00;;;-3.60;1.00;;;;;;5062905;28;20049;-76
2022/03/03 04:00:24;;;;;;;148.40;88.07;;;-3.60;1.00;;;;;;5039670;28;20049;-76
2022/03/03 04:02:51;;;;;;;139.68;85.43;;;-3.70;1.00;;;;;;5037709;28;20041;-76
2022/03/03 04:05:21;;;;;;;139.88;83.18;;;-3.70;1.00;;;;;;5035889;28;20033;-75
2022/03/03 04:07:48;;;;;;;140.60;83.50;;;-3.70;1.00;;;;;;5029223;28;20168;-76
2022/03/03 04:10:16;;;;;;;142.32;84.63;;;-3.80;1.00;;;;;;5036225;28;20051;-77
2022/03/03 04:12:44;;;;;;;143.20;88.50;;;-3.80;1.00;;;;;;5037820;28;20299;-77
2022/03/03 04:15:11;;;;;;;143.45;84.38;;;-3.80;1.00;;;;;;5055766;28;20044;-76
2022/03/03 04:17:39;;;;;;;143.27;84.18;;;-3.80;1.00;;;;;;5037790;28;20052;-75
2022/03/03 04:20:08;;;;;;;140.27;84.57;;;-3.80;1.00;;;;;;5032855;28;20049;-76
2022/03/03 04:22:37;;;;;;;149.57;85.97;;;-3.80;1.00;;;;;;5047581;28;20459;-77
2022/03/03 04:25:05;;;;;;;142.13;81.82;;;-3.80;1.00;;;;;;5037892;28;20242;-77
2022/03/03 04:27:33;;;;;;;137.05;79.38;;;-3.80;1.00;;;;;;5028094;28;20045;-77
2022/03/03 04:30:01;;;;;;;137.65;80.90;;;-3.70;1.00;;;;;;5033964;28;20059;-77
2022/03/03 04:32:29;;;;;;;135.45;81.38;;;-3.80;1.00;;;;;;5055473;28;20115;-76
2022/03/03 04:34:57;;;;;;;149.00;86.70;;;-3.80;1.00;;;;;;5034891;28;20052;-77
2022/03/03 04:37:24;;;;;;;148.52;87.20;;;-3.80;1.00;;;;;;5037749;28;20417;-77
2022/03/03 04:39:53;;;;;;;153.85;88.82;;;-3.90;1.00;;;;;;5055461;28;20101;-77
2022/03/03 04:42:21;;;;;;;154.68;91.28;;;-3.90;1.00;;;;;;5037885;28;20041;-76
2022/03/03 04:44:48;;;;;;;216.50;112.47;;;-3.90;1.00;;;;;;5037679;28;20048;-77
2022/03/03 04:47:16;;;;;;;171.73;98.00;;;-4.00;1.00;;;;;;5056412;28;20407;-76
2022/03/03 04:49:43;;;;;;;175.27;99.30;;;-4.00;1.00;;;;;;5061657;28;20055;-75
2022/03/03 04:52:10;;;;;;;177.40;103.43;;;-4.00;1.00;;;;;;5062085;28;20496;-76
2022/03/03 04:54:38;;;;;;;196.15;114.47;;;-4.10;1.00;;;;;;5059121;28;20056;-76
2022/03/03 04:57:07;;;;;;;188.48;106.25;;;-4.10;1.00;;;;;;5041736;28;20076;-76
2022/03/03 04:59:35;;;;;;;173.13;98.63;;;-4.10;99.90;;;;;;5038880;28;20041;-76
2022/03/03 05:02:02;;;;;;;168.60;98.13;;;-4.20;99.90;;;;;;5040901;28;20567;-76
2022/03/03 05:04:30;;;;;;;170.05;97.20;;;-4.20;1.00;;;;;;5058631;28;20040;-77
2022/03/03 05:06:57;;;;;;;162.98;94.82;;;-4.20;1.00;;;;;;5055328;28;20060;-77
2022/03/03 05:09:24;;;;;;;172.90;97.55;;;-4.20;1.00;;;;;;5037789;28;20049;-77
2022/03/03 05:11:52;;;;;;;165.85;95.25;;;-4.20;1.00;;;;;;5035248;28;20103;-76
2022/03/03 05:14:21;;;;;;;154.63;90.00;;;-4.10;1.00;;;;;;5017640;28;20064;-76
2022/03/03 05:16:49;;;;;;;166.52;92.60;;;-4.10;1.00;;;;;;5036200;28;20042;-76
2022/03/03 05:19:16;;;;;;;177.95;99.78;;;-4.10;1.00;;;;;;5043032;28;20080;-77
2022/03/03 05:21:44;;;;;;;176.57;99.78;;;-4.00;1.00;;;;;;5036877;28;20073;-77
2022/03/03 05:24:12;;;;;;;170.95;93.38;;;-4.10;1.00;;;;;;5052771;28;20443;-77
2022/03/03 05:26:40;;;;;;;158.18;90.00;;;-4.10;1.00;;;;;;5052907;28;20087;-78
2022/03/03 05:29:08;;;;;;;156.13;89.72;;;-4.10;1.00;;;;;;5030860;28;20049;-77
2022/03/03 05:31:37;;;;;;;156.00;92.80;;;-4.10;1.00;;;;;;5044938;28;20067;-76
2022/03/03 05:34:04;;;;;;;182.65;100.40;;;-4.10;1.00;;;;;;5076007;28;20036;-77
2022/03/03 05:36:32;;;;;;;188.38;103.25;;;-4.00;1.00;;;;;;5048834;28;20120;-78
2022/03/03 05:39:00;;;;;;;184.45;104.75;;;-4.10;1.00;;;;;;5038032;28;20114;-77
2022/03/03 05:41:28;;;;;;;187.55;106.90;;;-4.10;1.00;;;;;;5045790;28;20041;-77
2022/03/03 05:43:55;;;;;;;181.98;103.20;;;-4.10;1.00;;;;;;5019559;28;20049;-76
2022/03/03 05:46:24;;;;;;;189.27;107.03;;;-4.00;1.00;;;;;;5055607;28;20112;-76
2022/03/03 05:48:53;;;;;;;192.90;105.43;;;-4.00;1.00;;;;;;5054299;28;20049;-77
2022/03/03 05:51:21;;;;;;;182.88;101.85;;;-4.00;1.00;;;;;;5054303;28;20041;-78
2022/03/03 05:53:48;;;;;;;202.68;109.85;;;-3.90;1.00;;;;;;5054483;28;20044;-76
2022/03/03 05:56:20;;;;;;;226.60;124.13;;;-3.90;99.90;;;;;;5054480;28;20106;-77
2022/03/03 05:58:49;;;;;;;260.80;141.75;;;-3.90;99.90;;;;;;5055299;28;20047;-77
2022/03/03 06:01:18;;;;;;;236.27;130.77;;;-3.90;99.90;;;;;;5054119;28;20491;-76
2022/03/03 06:03:47;;;;;;;270.38;145.20;;;-3.90;99.90;;;;;;5053441;28;20090;-78
2022/03/03 06:06:18;;;;;;;239.70;134.05;;;-3.90;99.90;;;;;;5053759;28;20053;-76
2022/03/03 06:09:02;;;;;;;248.32;135.70;;;-3.80;99.90;;;;;;5047361;28;20048;-77
2022/03/03 06:11:30;;;;;;;226.48;128.18;;;-3.80;92.70;;;;;;5055380;28;20104;-76
2022/03/03 06:14:05;;;;;;;232.57;129.05;;;-3.70;35.10;;;;;;5036691;28;20575;-76
2022/03/03 06:16:34;;;;;;;232.80;129.77;;;-3.70;1.00;;;;;;5055077;28;20045;-76
2022/03/03 06:19:01;;;;;;;210.48;116.60;;;-3.60;1.00;;;;;;5033837;28;20108;-76
2022/03/03 06:21:30;;;;;;;222.45;120.30;;;-3.60;1.00;;;;;;5025764;28;20045;-76
2022/03/03 06:23:58;;;;;;;221.98;123.40;;;-3.60;1.00;;;;;;5034441;28;20395;-77
2022/03/03 06:26:26;;;;;;;211.75;115.50;;;-3.50;1.00;;;;;;5029773;28;20050;-76
2022/03/03 06:28:53;;;;;;;230.88;119.78;;;-3.40;1.00;;;;;;5032872;28;20068;-78
2022/03/03 06:31:22;;;;;;;228.75;120.32;;;-3.20;1.00;;;;;;5034173;28;20069;-77
2022/03/03 06:33:49;;;;;;;227.35;122.32;;;-3.10;1.00;;;;;;5033771;28;20041;-76
2022/03/03 06:36:17;;;;;;;261.33;141.23;;;-3.00;1.00;;;;;;5032766;28;20053;-76
2022/03/03 06:38:46;;;;;;;250.95;126.63;;;-2.90;1.00;;;;;;5029564;28;20394;-77
2022/03/03 06:41:13;;;;;;;260.02;130.93;;;-2.80;1.00;;;;;;5029816;28;20045;-76
2022/03/03 06:43:41;;;;;;;272.20;136.45;;;-2.70;1.00;;;;;;5033201;28;20120;-77
2022/03/03 06:46:09;;;;;;;302.83;144.23;;;-2.50;1.00;;;;;;5035794;28;20041;-76
2022/03/03 06:48:36;;;;;;;285.35;141.30;;;-2.30;1.00;;;;;;5035915;28;20100;-77
2022/03/03 06:51:05;;;;;;;274.50;135.35;;;-2.20;99.90;;;;;;5036798;28;20048;-77
2022/03/03 06:53:35;;;;;;;272.48;132.70;;;-2.10;99.90;;;;;;5035448;28;20037;-76
2022/03/03 06:56:07;;;;;;;291.63;135.18;;;-1.80;99.90;;;;;;5036637;28;20391;-77
2022/03/03 06:58:35;;;;;;;294.50;136.80;;;-1.60;99.90;;;;;;5035507;28;20153;-77
2022/03/03 07:01:07;;;;;;;289.08;137.77;;;-1.40;99.90;;;;;;5056518;28;20064;-77
2022/03/03 07:03:34;;;;;;;292.65;132.52;;;-1.20;99.90;;;;;;5044834;28;20061;-76
2022/03/03 07:06:03;;;;;;;274.73;126.82;;;-1.00;99.90;;;;;;5036851;28;20095;-77
2022/03/03 07:08:32;;;;;;;266.65;121.93;;;-0.80;99.90;;;;;;5052035;28;20159;-77
2022/03/03 07:11:00;;;;;;;243.65;114.03;;;-0.60;53.20;;;;;;5036703;28;20133;-76
2022/03/03 07:13:30;;;;;;;243.98;113.13;;;-0.40;99.90;;;;;;5034296;28;20041;-77
2022/03/03 07:16:18;;;;;;;229.23;110.22;;;-0.30;99.90;;;;;;5042322;28;20045;-77
2022/03/03 07:18:51;;;;;;;235.15;111.68;;;-0.10;99.90;;;;;;5045262;28;20067;-76
2022/03/03 07:21:31;;;;;;;232.02;109.15;;;-0.10;88.00;;;;;;5038161;28;20056;-78
2022/03/03 07:24:04;;;;;;;243.05;112.55;;;-0.10;99.90;;;;;;5054466;28;20510;-78
2022/03/03 07:26:33;;;;;;;246.25;118.47;;;0.10;99.90;;;;;;5036630;28;20103;-78
2022/03/03 07:29:04;;;;;;;243.10;115.13;;;0.10;1.00;;;;;;5053519;28;20118;-78
2022/03/03 07:31:35;;;;;;;234.40;113.40;;;0.20;99.90;;;;;;5053562;28;20057;-78
2022/03/03 07:34:07;;;;;;;215.48;109.00;;;0.30;17.90;;;;;;5039103;28;20452;-77
2022/03/03 07:36:39;;;;;;;196.95;99.82;;;0.30;1.00;;;;;;5044474;28;20034;-78
2022/03/03 07:39:11;;;;;;;189.93;97.13;;;0.40;1.00;;;;;;5053246;28;20113;-77
2022/03/03 07:41:38;;;;;;;173.43;90.25;;;0.50;1.00;;;;;;5056861;28;20041;-78
2022/03/03 07:44:07;;;;;;;186.55;94.65;;;0.60;1.00;;;;;;5056514;28;20079;-77
2022/03/03 07:46:35;;;;;;;193.20;100.32;;;0.70;1.00;;;;;;5056710;28;20567;-76
2022/03/03 07:49:03;;;;;;;191.75;98.13;;;0.90;1.00;;;;;;5039102;28;20057;-78
2022/03/03 07:51:30;;;;;;;198.88;104.65;;;1.10;1.00;;;;;;5057222;28;20063;-77
2022/03/03 07:53:58;;;;;;;213.68;105.45;;;1.30;1.00;;;;;;5039038;28;20045;-77
2022/03/03 07:56:29;;;;;;;203.00;102.10;;;1.50;1.00;;;;;;5040259;28;20037;-79
2022/03/03 07:59:03;;;;;;;234.27;122.32;;;1.70;1.00;;;;;;5040818;28;20075;-78
2022/03/03 08:01:36;;;;;;;248.63;127.88;;;1.80;1.00;;;;;;5039899;28;20045;-79
2022/03/03 08:04:03;;;;;;;232.10;117.80;;;1.90;1.00;;;;;;5058969;28;20049;-79
2022/03/03 08:06:33;;;;;;;210.63;104.93;;;2.10;1.00;;;;;;5057500;28;20053;-76
2022/03/03 08:09:02;;;;;;;209.68;108.55;;;2.30;1.00;;;;;;5039533;28;20165;-79
2022/03/03 08:11:30;;;;;;;184.15;99.30;;;2.40;1.00;;;;;;5039962;28;20078;-77
2022/03/03 08:13:58;;;;;;;156.35;85.38;;;2.60;1.00;;;;;;5039505;28;20072;-77
2022/03/03 08:16:27;;;;;;;146.93;77.38;;;2.80;1.00;;;;;;5038805;28;20098;-79
2022/03/03 08:18:57;;;;;;;130.38;69.68;;;3.00;1.00;;;;;;5038761;28;20048;-77
2022/03/03 08:21:26;;;;;;;108.53;53.70;;;3.20;1.00;;;;;;5040515;28;20053;-78
2022/03/03 08:23:58;;;;;;;83.03;47.30;;;3.60;99.90;;;;;;5059482;28;20077;-77
2022/03/03 08:26:26;;;;;;;88.40;48.60;;;3.70;1.00;;;;;;5044968;28;20048;-78
2022/03/03 08:28:54;;;;;;;90.97;49.08;;;3.70;99.90;;;;;;5043356;28;20052;-78
2022/03/03 08:31:29;;;;;;;92.15;49.15;;;3.90;1.00;;;;;;5039606;28;20048;-77
2022/03/03 08:34:10;;;;;;;83.82;47.45;;;4.20;99.90;;;;;;5064892;28;20044;-77
2022/03/03 08:36:45;;;;;;;84.07;48.40;;;4.20;1.00;;;;;;5058244;28;20047;-79
2022/03/03 08:39:16;;;;;;;93.68;48.33;;;4.50;45.60;;;;;;5053978;28;20041;-78
2022/03/03 08:41:45;;;;;;;91.35;50.58;;;4.50;1.00;;;;;;5039768;28;20117;-78
2022/03/03 08:44:13;;;;;;;99.95;47.58;;;4.60;99.90;;;;;;5039539;28;20053;-77
2022/03/03 08:46:42;;;;;;;70.85;38.28;;;4.60;99.90;;;;;;5039079;28;20135;-78
2022/03/03 08:49:14;;;;;;;69.43;38.25;;;4.60;1.00;;;;;;5056359;28;20124;-78
2022/03/03 08:51:42;;;;;;;69.72;37.35;;;4.70;49.90;;;;;;5038562;28;20056;-77
2022/03/03 08:54:11;;;;;;;62.20;35.35;;;4.60;1.00;;;;;;5057688;28;20037;-78
2022/03/03 08:56:38;;;;;;;63.90;36.47;;;4.60;1.00;;;;;;5057880;28;20037;-77
2022/03/03 08:59:06;;;;;;;69.47;40.05;;;4.60;1.00;;;;;;5055780;28;20127;-78
2022/03/03 09:01:33;;;;;;;70.57;38.72;;;4.80;1.00;;;;;;5037461;28;20049;-76
2022/03/03 09:04:01;;;;;;;63.72;34.55;;;4.90;1.00;;;;;;5055098;28;20040;-77
2022/03/03 09:06:31;;;;;;;62.13;35.75;;;5.00;1.00;;;;;;5036870;28;20048;-78
2022/03/03 09:08:59;;;;;;;65.90;33.60;;;5.10;1.00;;;;;;5037485;28;20111;-77
2022/03/03 09:11:27;;;;;;;63.58;33.33;;;5.10;1.00;;;;;;5055564;28;20116;-78
2022/03/03 09:13:54;;;;;;;62.67;30.48;;;5.20;99.90;;;;;;5038250;28;20488;-77
2022/03/03 09:16:22;;;;;;;57.85;28.98;;;5.30;99.90;;;;;;5055749;28;20407;-77
2022/03/03 09:18:49;;;;;;;50.97;29.52;;;5.40;99.90;;;;;;5058872;28;20053;-77
2022/03/03 09:21:17;;;;;;;58.03;32.05;;;5.40;1.00;;;;;;5063741;28;20053;-76
2022/03/03 09:23:46;;;;;;;55.40;30.40;;;5.50;1.00;;;;;;5037165;28;20052;-77
2022/03/03 09:26:13;;;;;;;58.80;32.10;;;5.60;1.00;;;;;;5055119;28;20475;-76
2022/03/03 09:28:41;;;;;;;57.88;31.98;;;5.60;1.00;;;;;;5038697;28;20045;-77
2022/03/03 09:31:09;;;;;;;64.72;33.22;;;5.70;1.00;;;;;;5061527;28;20032;-79
2022/03/03 09:33:36;;;;;;;62.47;33.65;;;5.80;2.30;;;;;;5075877;28;20048;-77
2022/03/03 09:36:04;;;;;;;57.55;29.23;;;5.90;99.90;;;;;;5085185;28;20406;-76
2022/03/03 09:38:32;;;;;;;53.88;31.50;;;5.90;1.00;;;;;;5067445;28;20048;-77
2022/03/03 09:41:01;;;;;;;52.85;30.85;;;6.10;1.00;;;;;;5058057;28;20056;-76
2022/03/03 09:43:29;;;;;;;50.08;29.48;;;6.20;99.90;;;;;;5044504;28;20227;-79
2022/03/03 09:45:57;;;;;;;51.08;28.98;;;6.30;99.90;;;;;;5039557;28;20045;-79
2022/03/03 09:48:24;;;;;;;51.28;30.23;;;6.40;99.90;;;;;;5041980;28;20065;-79
2022/03/03 09:50:52;;;;;;;53.17;31.38;;;6.50;99.90;;;;;;5063189;28;20044;-79
2022/03/03 09:53:20;;;;;;;53.60;30.33;;;6.60;1.00;;;;;;5067662;28;20072;-79
2022/03/03 09:55:49;;;;;;;46.55;25.55;;;6.70;1.00;;;;;;5045800;28;20045;-77
2022/03/03 09:58:18;;;;;;;49.85;24.90;;;6.60;1.00;;;;;;5020994;28;20045;-78
2022/03/03 10:00:46;;;;;;;50.65;24.27;;;6.60;1.00;;;;;;5037373;28;20053;-78
2022/03/03 10:03:16;;;;;;;47.10;26.35;;;6.60;1.00;;;;;;5020026;28;20520;-77
2022/03/03 10:05:47;;;;;;;43.00;24.05;;;6.70;1.00;;;;;;5038448;28;20432;-77
2022/03/03 10:08:16;;;;;;;44.58;25.17;;;6.70;1.00;;;;;;5028561;28;20460;-78
2022/03/03 10:10:45;;;;;;;41.50;23.25;;;6.80;1.00;;;;;;5041338;28;20052;-78
2022/03/03 10:13:16;;;;;;;45.67;25.63;;;6.60;1.00;;;;;;5062342;28;20049;-77
2022/03/03 10:15:50;;;;;;;43.70;25.00;;;6.80;1.00;;;;;;5045958;28;20041;-78
2022/03/03 10:18:20;;;;;;;40.03;23.73;;;6.90;1.00;;;;;;5044300;28;20045;-78
2022/03/03 10:20:50;;;;;;;45.47;23.73;;;7.10;1.00;;;;;;5066720;28;20053;-79
2022/03/03 10:23:19;;;;;;;39.30;22.40;;;7.10;1.00;;;;;;5041278;28;20575;-79
2022/03/03 10:25:47;;;;;;;41.30;21.83;;;7.20;1.00;;;;;;5039483;28;20048;-77
2022/03/03 10:28:18;;;;;;;36.75;21.63;;;7.20;1.00;;;;;;5056364;28;20037;-78
2022/03/03 10:30:57;;;;;;;33.53;20.10;;;7.20;1.00;;;;;;5057440;28;20534;-78
2022/03/03 10:33:28;;;;;;;44.05;22.08;;;7.30;1.00;;;;;;5056611;28;20500;-78
2022/03/03 10:36:14;;;;;;;34.88;18.70;;;7.30;1.00;;;;;;5040935;28;20045;-79
2022/03/03 10:38:51;;;;;;;32.28;18.25;;;7.40;1.00;;;;;;5039833;28;20098;-79
2022/03/03 10:41:36;;;;;;;29.23;18.08;;;7.60;1.00;;;;;;5041497;28;20052;-79
2022/03/03 10:44:06;;;;;;;32.95;19.25;;;7.60;1.00;;;;;;5060255;28;20041;-79
2022/03/03 10:46:37;;;;;;;35.42;21.02;;;7.60;1.00;;;;;;5041900;28;20037;-79
2022/03/03 10:49:18;;;;;;;35.33;20.48;;;7.60;1.00;;;;;;5040941;28;20099;-79
2022/03/03 10:51:46;;;;;;;37.42;18.98;;;7.80;1.00;;;;;;5056053;28;20473;-79
2022/03/03 10:54:13;;;;;;;37.75;17.90;;;7.80;1.00;;;;;;5055815;28;20045;-79
2022/03/03 10:56:46;;;;;;;28.05;15.98;;;7.90;1.00;;;;;;5056379;28;20037;-78
2022/03/03 10:59:17;;;;;;;31.00;17.52;;;8.00;1.00;;;;;;5037622;28;20465;-79
2022/03/03 11:01:46;;;;;;;29.60;16.77;;;8.10;1.00;;;;;;5039063;28;20066;-79
2022/03/03 11:04:19;;;;;;;25.75;16.88;;;8.20;1.00;;;;;;5056436;28;20519;-78
2022/03/03 11:06:49;;;;;;;28.02;16.33;;;8.10;1.00;;;;;;5058353;28;20396;-78
2022/03/03 11:09:17;;;;;;;29.48;16.75;;;8.00;1.00;;;;;;5037484;28;20049;-77
2022/03/03 11:11:46;;;;;;;28.38;17.08;;;8.00;1.00;;;;;;5057838;28;20131;-79
2022/03/03 11:14:13;;;;;;;30.58;16.55;;;8.10;1.00;;;;;;5062751;28;20045;-77
2022/03/03 11:16:41;;;;;;;34.97;16.80;;;8.10;1.00;;;;;;5064653;28;20139;-78
2022/03/03 11:19:12;;;;;;;27.30;16.40;;;8.20;1.00;;;;;;5063705;28;20037;-77
2022/03/03 11:21:39;;;;;;;25.63;16.25;;;8.30;1.00;;;;;;5049614;28;20266;-78
2022/03/03 11:24:08;;;;;;;34.20;16.00;;;8.30;1.00;;;;;;5064249;28;20056;-77
2022/03/03 11:26:44;;;;;;;25.40;15.57;;;8.20;1.00;;;;;;5043379;28;20075;-77
2022/03/03 11:29:13;;;;;;;24.25;14.27;;;8.10;1.00;;;;;;5040693;28;20049;-79
2022/03/03 11:31:42;;;;;;;26.35;15.13;;;8.10;1.00;;;;;;5061692;28;20041;-78
2022/03/03 11:34:22;;;;;;;25.63;15.40;;;8.20;1.00;;;;;;5059869;28;20049;-79
2022/03/03 11:36:50;;;;;;;29.65;16.58;;;8.30;1.00;;;;;;5062216;28;20056;-78
2022/03/03 11:39:42;;;;;;;27.23;15.80;;;8.40;1.00;;;;;;5063763;28;20052;-78
2022/03/03 11:42:24;;;;;;;32.47;18.40;;;8.30;1.00;;;;;;5065258;28;20057;-79
2022/03/03 11:44:54;;;;;;;25.20;15.50;;;8.40;1.00;;;;;;5051013;28;20053;-78
2022/03/03 11:47:25;;;;;;;44.63;15.38;;;8.50;1.00;;;;;;5060765;28;20098;-79
2022/03/03 11:50:23;;;;;;;25.20;14.25;;;8.50;1.00;;;;;;5059667;28;20534;-78
2022/03/03 11:53:18;;;;;;;26.35;17.30;;;8.50;1.00;;;;;;5024806;28;20049;-79
2022/03/03 11:55:51;;;;;;;24.48;15.07;;;8.60;1.00;;;;;;5021694;28;20547;-78
2022/03/03 11:58:23;;;;;;;29.40;16.42;;;8.70;1.00;;;;;;5045098;28;20075;-78
2022/03/03 12:01:09;;;;;;;26.70;16.13;;;8.80;1.00;;;;;;5029726;28;20064;-78
2022/03/03 12:04:14;;;;;;;29.70;16.95;;;8.90;1.00;;;;;;5051607;28;20048;-79
2022/03/03 12:06:47;;;;;;;34.00;18.33;;;8.90;1.00;;;;;;4978258;28;20039;-77
2022/03/03 12:09:22;;;;;;;33.03;16.77;;;8.80;1.00;;;;;;4957906;28;20081;-77
2022/03/03 12:11:50;;;;;;;35.13;18.52;;;8.80;1.00;;;;;;4955160;28;20129;-77
2022/03/03 12:14:35;;;;;;;32.25;18.05;;;8.80;1.00;;;;;;4961988;28;20050;-76
2022/03/03 12:17:37;;;;;;;25.10;16.37;;;8.90;1.00;;;;;;4978987;28;20047;-79
2022/03/03 12:20:34;;;;;;;31.88;16.48;;;8.90;1.00;;;;;;4966323;28;20067;-77
2022/03/03 12:23:11;;;;;;;39.25;18.83;;;8.90;1.00;;;;;;4961046;28;20047;-77
2022/03/03 12:25:58;;;;;;;33.85;17.20;;;8.90;1.00;;;;;;4957912;28;20086;-79
2022/03/03 12:28:27;;;;;;;25.95;16.13;;;9.00;1.00;;;;;;4980051;28;20053;-79
2022/03/03 12:30:56;;;;;;;30.52;17.38;;;9.00;1.00;;;;;;4963262;28;20153;-78
2022/03/03 12:33:26;;;;;;;28.48;17.10;;;9.10;1.00;;;;;;4975688;28;20142;-79
2022/03/03 12:36:00;;;;;;;27.92;16.63;;;9.10;1.00;;;;;;4982707;28;20046;-78
2022/03/03 12:38:30;;;;;;;26.50;16.70;;;9.00;1.00;;;;;;5069288;28;20048;-77
2022/03/03 12:40:57;;;;;;;30.38;17.25;;;9.10;1.00;;;;;;5076072;28;20051;-78
2022/03/03 12:43:25;;;;;;;23.30;15.18;;;9.00;1.00;;;;;;5059829;28;20074;-77